Terminal Aerodrome Forecast
Issued by NWS

Home | Current Version | Previous Version | Text Only | Print | Product List | Glossary On
Versions: 1 2 3 4 5 6 7 8 9 10 11 12 13 14 15 16 17 18 19 20 21
000
FTUS41 KBTV 162337
TAFSLK
TAF
KSLK 162337Z 1700/1724 00000KT P6SM SKC
     FM170800 00000KT 3SM BR FEW003
      TEMPO 1709/1711 1SM BR SCT003 OVC010
     FM171200 25006KT P6SM FEW150=

USA.gov is the U.S. government's official web portal to all federal, state and local government web resources and services.